createdAt,value
2017-08-21T00:02:03.467Z,80.50
2017-08-21T00:04:32.307Z,80.60
2017-08-21T00:07:00.530Z,80.90
2017-08-21T00:09:29.366Z,81.40
2017-08-21T00:11:57.435Z,81.20
2017-08-21T00:14:25.499Z,81.20
2017-08-21T00:16:53.559Z,81.30
2017-08-21T00:19:21.608Z,81.20
2017-08-21T00:21:50.457Z,81.40
2017-08-21T00:24:18.527Z,81.40
2017-08-21T00:26:46.597Z,81.70
2017-08-21T00:29:14.655Z,83.00
2017-08-21T00:31:42.724Z,82.40
2017-08-21T00:34:11.343Z,82.40
2017-08-21T00:36:39.415Z,82.10
2017-08-21T00:39:08.458Z,82.40
2017-08-21T00:41:36.527Z,82.40
2017-08-21T00:44:04.594Z,82.10
2017-08-21T00:46:32.648Z,82.40
2017-08-21T00:49:01.494Z,82.80
2017-08-21T00:51:29.535Z,82.70
2017-08-21T00:53:57.623Z,82.90
2017-08-21T00:56:25.704Z,83.20
2017-08-21T00:58:53.759Z,83.10
2017-08-21T01:01:21.834Z,83.00
2017-08-21T01:03:49.920Z,83.00
2017-08-21T01:06:18.003Z,82.70
2017-08-21T01:08:46.074Z,82.70
2017-08-21T01:11:14.124Z,82.80
2017-08-21T01:13:42.190Z,82.90
2017-08-21T01:16:10.473Z,82.90
2017-08-21T01:18:38.546Z,82.90
2017-08-21T01:21:06.616Z,82.90
2017-08-21T01:23:34.687Z,83.00
2017-08-21T01:26:02.756Z,83.10
2017-08-21T01:28:30.824Z,83.50
2017-08-21T01:30:58.895Z,83.60
2017-08-21T01:33:26.968Z,83.20
2017-08-21T01:35:55.040Z,83.20
2017-08-21T01:38:23.112Z,83.10
2017-08-21T01:40:51.219Z,83.20
2017-08-21T01:43:20.057Z,82.70
2017-08-21T01:45:48.120Z,82.50
2017-08-21T01:48:16.202Z,82.70
2017-08-21T01:50:44.248Z,82.70
2017-08-21T01:53:12.294Z,82.70
2017-08-21T01:55:41.147Z,82.70
2017-08-21T01:58:09.208Z,82.50
2017-08-21T02:00:37.284Z,82.60
2017-08-21T02:03:05.356Z,82.60
2017-08-21T02:05:33.420Z,82.70
2017-08-21T02:08:01.466Z,83.10
2017-08-21T02:10:29.562Z,83.00
2017-08-21T02:12:57.637Z,83.40
2017-08-21T02:15:25.705Z,83.70
2017-08-21T02:17:53.770Z,83.70
2017-08-21T02:20:21.847Z,84.10
2017-08-21T02:22:49.914Z,84.10
2017-08-21T02:25:17.975Z,84.20
2017-08-21T02:27:46.057Z,84.00
2017-08-21T02:30:14.102Z,84.00
2017-08-21T02:32:42.199Z,84.30
2017-08-21T02:35:10.247Z,84.80
2017-08-21T02:37:38.307Z,85.00
2017-08-21T02:40:06.379Z,85.30
2017-08-21T02:42:34.447Z,85.20
2017-08-21T02:45:02.527Z,85.20
2017-08-21T02:47:30.585Z,85.50
2017-08-21T02:49:58.672Z,85.70
2017-08-21T02:52:26.722Z,85.70
2017-08-21T02:54:54.806Z,85.70
2017-08-21T02:57:22.882Z,86.20
2017-08-21T02:59:50.942Z,86.50
2017-08-21T03:02:18.990Z,86.10
2017-08-21T03:04:47.833Z,86.60
2017-08-21T03:07:15.932Z,86.60
2017-08-21T03:09:43.990Z,86.40
2017-08-21T03:12:12.066Z,86.10
2017-08-21T03:14:40.135Z,85.80
2017-08-21T03:17:08.195Z,85.70
2017-08-21T03:19:36.282Z,86.00
2017-08-21T03:22:04.415Z,85.90
2017-08-21T03:24:32.464Z,85.90
2017-08-21T03:27:00.538Z,85.80
2017-08-21T03:29:28.598Z,85.90
2017-08-21T03:31:57.427Z,85.60
2017-08-21T03:34:25.499Z,85.60
2017-08-21T03:36:53.555Z,85.60
2017-08-21T03:39:21.619Z,85.50
2017-08-21T03:41:49.687Z,85.30
2017-08-21T03:44:17.755Z,85.50
2017-08-21T03:46:45.833Z,85.50
2017-08-21T03:49:13.930Z,85.40
2017-08-21T03:51:41.986Z,85.60
2017-08-21T03:54:10.066Z,85.50
2017-08-21T03:56:38.129Z,85.80
2017-08-21T03:59:06.185Z,85.90
2017-08-21T04:01:34.253Z,86.30
2017-08-21T04:04:02.307Z,86.30
2017-08-21T04:06:30.378Z,86.30
2017-08-21T04:08:58.483Z,86.30
2017-08-21T04:11:26.562Z,86.30
2017-08-21T04:13:54.631Z,86.20
2017-08-21T04:16:22.698Z,86.30
2017-08-21T04:18:50.784Z,86.40
2017-08-21T04:21:18.844Z,86.60
2017-08-21T04:23:46.912Z,86.50
2017-08-21T04:26:14.960Z,86.40
2017-08-21T04:28:43.044Z,86.30
2017-08-21T04:31:11.111Z,86.70
2017-08-21T04:33:39.171Z,86.70
2017-08-21T04:36:07.234Z,87.10
2017-08-21T04:38:35.303Z,87.30
2017-08-21T04:41:03.362Z,86.60
2017-08-21T04:43:31.437Z,86.20
2017-08-21T04:45:59.511Z,86.60
2017-08-21T04:48:27.570Z,86.60
2017-08-21T04:50:55.671Z,86.70
2017-08-21T04:53:23.719Z,86.80
2017-08-21T04:55:51.795Z,86.80
2017-08-21T04:58:19.859Z,86.70
2017-08-21T05:00:47.930Z,87.00
2017-08-21T05:03:15.993Z,87.00
2017-08-21T05:05:44.066Z,86.80
2017-08-21T05:08:12.123Z,87.00
2017-08-21T05:10:40.198Z,87.50
2017-08-21T05:13:08.263Z,87.90
2017-08-21T05:15:36.346Z,87.90
2017-08-21T05:18:04.384Z,87.70
2017-08-21T05:20:33.297Z,87.80
2017-08-21T05:23:01.331Z,87.70
2017-08-21T05:25:30.162Z,87.40
2017-08-21T05:27:58.230Z,87.30
2017-08-21T05:30:26.283Z,87.30
2017-08-21T05:32:54.365Z,87.20
2017-08-21T05:35:22.434Z,87.40
2017-08-21T05:37:50.534Z,87.30
2017-08-21T05:40:18.617Z,87.40
2017-08-21T05:42:46.679Z,87.80
2017-08-21T05:45:14.741Z,87.80
2017-08-21T05:47:42.809Z,87.70
2017-08-21T05:50:10.870Z,87.60
2017-08-21T05:52:38.953Z,87.60
2017-08-21T05:55:07.015Z,87.30
2017-08-21T05:57:35.099Z,87.80
2017-08-21T06:00:03.168Z,86.40
2017-08-21T06:02:31.238Z,86.10
2017-08-21T06:04:59.325Z,87.10
2017-08-21T06:07:27.377Z,87.50
2017-08-21T06:09:55.499Z,87.70
2017-08-21T06:12:24.347Z,87.20
2017-08-21T06:14:52.407Z,87.10
2017-08-21T06:17:20.911Z,86.60
2017-08-21T06:19:48.971Z,87.00
2017-08-21T06:22:17.063Z,86.20
2017-08-21T06:24:45.143Z,85.70
2017-08-21T06:27:13.579Z,84.90
2017-08-21T06:29:41.668Z,84.40
2017-08-21T06:32:09.717Z,84.40
2017-08-21T06:34:37.826Z,84.00
2017-08-21T06:37:05.964Z,84.70
2017-08-21T06:39:34.746Z,84.70
2017-08-21T06:42:02.830Z,84.80
2017-08-21T06:44:30.893Z,83.40
2017-08-21T06:46:59.060Z,84.20
2017-08-21T06:49:27.090Z,83.80
2017-08-21T06:51:55.940Z,84.10
2017-08-21T06:54:24.012Z,84.00
2017-08-21T06:56:52.072Z,83.10
2017-08-21T06:59:20.131Z,82.70
2017-08-21T07:01:48.205Z,82.00
2017-08-21T07:04:16.263Z,82.30
2017-08-21T07:06:45.117Z,83.00
2017-08-21T07:09:13.200Z,83.00
2017-08-21T07:11:41.261Z,84.10
2017-08-21T07:14:10.171Z,83.20
2017-08-21T07:16:38.232Z,83.50
2017-08-21T07:19:06.450Z,83.10
2017-08-21T07:21:34.506Z,83.00
2017-08-21T07:24:02.570Z,83.30
2017-08-21T07:26:31.406Z,84.20
2017-08-21T07:28:59.471Z,83.40
2017-08-21T07:31:27.602Z,82.40
2017-08-21T07:33:56.424Z,80.50
2017-08-21T07:36:24.483Z,80.40
2017-08-21T07:38:52.549Z,80.10
2017-08-21T07:41:20.604Z,77.80
2017-08-21T07:43:49.490Z,79.50
2017-08-21T07:46:18.326Z,79.10
2017-08-21T07:48:46.400Z,79.10
2017-08-21T07:51:15.387Z,79.00
2017-08-21T07:53:43.448Z,79.30
2017-08-21T07:56:11.515Z,80.00
2017-08-21T07:58:39.590Z,77.90
2017-08-21T08:01:07.666Z,76.70
2017-08-21T08:03:35.738Z,78.00
2017-08-21T08:06:04.685Z,76.40
2017-08-21T08:08:32.744Z,76.40
2017-08-21T08:11:00.819Z,76.00
2017-08-21T08:13:28.886Z,74.50
2017-08-21T08:15:56.952Z,74.20
2017-08-21T08:18:25.042Z,73.10
2017-08-21T08:20:53.141Z,72.40
2017-08-21T08:23:21.170Z,73.00
2017-08-21T08:25:49.264Z,72.20
2017-08-21T08:28:17.336Z,72.40
2017-08-21T08:30:45.396Z,73.00
2017-08-21T08:33:13.684Z,71.30
2017-08-21T08:35:41.723Z,69.00
2017-08-21T08:38:09.815Z,69.60
2017-08-21T08:40:37.883Z,68.40
2017-08-21T08:43:05.958Z,68.80
2017-08-21T08:45:34.558Z,66.30
2017-08-21T08:48:02.636Z,66.30
2017-08-21T08:50:30.698Z,64.30
2017-08-21T08:52:58.774Z,64.50
2017-08-21T08:55:26.830Z,66.80
2017-08-21T08:57:54.919Z,67.20
2017-08-21T09:00:22.967Z,64.20
2017-08-21T09:02:51.058Z,63.60
2017-08-21T09:05:19.130Z,62.10
2017-08-21T09:07:47.199Z,60.50
2017-08-21T09:10:15.271Z,61.30
2017-08-21T09:12:43.351Z,61.00
2017-08-21T09:15:11.435Z,63.50
2017-08-21T09:17:40.256Z,61.00
2017-08-21T09:20:08.323Z,60.90
2017-08-21T09:22:36.384Z,60.30
2017-08-21T09:25:05.239Z,61.20
2017-08-21T09:27:33.310Z,61.90
2017-08-21T09:30:01.380Z,60.00
2017-08-21T09:32:30.465Z,57.90
2017-08-21T09:34:58.499Z,58.10
2017-08-21T09:37:26.558Z,57.70
2017-08-21T09:39:54.715Z,55.60
2017-08-21T09:42:23.555Z,51.30
2017-08-21T09:44:51.613Z,50.70
2017-08-21T09:47:19.691Z,47.10
2017-08-21T09:49:47.767Z,45.20
2017-08-21T09:52:16.472Z,42.50
2017-08-21T09:54:44.568Z,41.70
2017-08-21T09:57:12.631Z,40.60
2017-08-21T09:59:41.458Z,41.10
2017-08-21T10:02:09.548Z,41.00
2017-08-21T10:04:37.609Z,39.90
2017-08-21T10:07:05.850Z,38.30
2017-08-21T10:09:34.663Z,35.20
2017-08-21T10:12:02.778Z,35.10
2017-08-21T10:14:59.708Z,35.50
2017-08-21T10:17:27.778Z,34.70
2017-08-21T10:19:55.843Z,33.90
2017-08-21T10:22:23.938Z,32.80
2017-08-21T10:24:52.010Z,33.30
2017-08-21T10:27:20.039Z,33.90
2017-08-21T10:29:48.111Z,34.80
2017-08-21T10:32:16.165Z,33.30
2017-08-21T10:34:44.250Z,32.50
2017-08-21T10:37:12.313Z,34.40
2017-08-21T10:39:40.394Z,35.50
2017-08-21T10:42:08.467Z,35.70
2017-08-21T10:44:37.507Z,35.30
2017-08-21T10:47:05.599Z,37.30
2017-08-21T10:49:34.541Z,39.20
2017-08-21T10:52:02.588Z,39.20
2017-08-21T10:54:30.663Z,40.20
2017-08-21T10:56:58.825Z,39.00
2017-08-21T10:59:26.854Z,38.00
2017-08-21T11:01:54.918Z,36.20
2017-08-21T11:04:22.991Z,36.40
2017-08-21T11:06:51.047Z,35.70
2017-08-21T11:09:19.147Z,34.20
2017-08-21T11:11:47.192Z,32.40
2017-08-21T11:14:15.258Z,32.30
2017-08-21T11:16:43.323Z,33.30
2017-08-21T11:19:11.382Z,36.00
2017-08-21T11:21:39.452Z,37.70
2017-08-21T11:24:07.524Z,36.50
2017-08-21T11:26:36.176Z,35.50
2017-08-21T11:29:04.253Z,33.60
2017-08-21T11:31:32.308Z,32.80
2017-08-21T11:34:00.384Z,31.10
2017-08-21T11:36:28.466Z,30.90
2017-08-21T11:38:56.522Z,31.30
2017-08-21T11:41:24.594Z,32.30
2017-08-21T11:43:52.677Z,33.50
2017-08-21T11:46:20.755Z,35.60
2017-08-21T11:48:48.814Z,36.90
2017-08-21T11:51:16.880Z,37.40
2017-08-21T11:53:44.965Z,37.60
2017-08-21T11:56:13.040Z,38.70
2017-08-21T11:58:41.110Z,38.00
2017-08-21T12:01:09.170Z,37.60
2017-08-21T12:03:37.240Z,37.40
2017-08-21T12:06:05.319Z,37.20
2017-08-21T12:08:33.368Z,37.80
2017-08-21T12:11:01.460Z,38.30
2017-08-21T12:13:29.510Z,40.30
2017-08-21T12:15:57.562Z,41.50
2017-08-21T12:18:25.639Z,40.60
2017-08-21T12:20:53.722Z,42.70
2017-08-21T12:23:21.884Z,43.70
2017-08-21T12:25:50.993Z,43.70
2017-08-21T12:28:19.047Z,46.10
2017-08-21T12:30:47.170Z,46.10
2017-08-21T12:33:15.244Z,46.00
2017-08-21T12:35:43.298Z,45.30
2017-08-21T12:38:11.390Z,46.10
2017-08-21T12:40:39.427Z,47.00
2017-08-21T12:43:07.496Z,47.60
2017-08-21T12:45:35.631Z,47.70
2017-08-21T12:48:03.666Z,47.60
2017-08-21T12:50:31.732Z,46.80
2017-08-21T12:52:59.793Z,48.50
2017-08-21T12:55:27.858Z,49.60
2017-08-21T12:57:55.981Z,48.90
2017-08-21T13:00:24.015Z,49.00
2017-08-21T13:02:52.075Z,47.10
2017-08-21T13:05:20.158Z,48.30
2017-08-21T13:07:48.221Z,46.40
2017-08-21T13:10:17.528Z,47.50
2017-08-21T13:12:45.599Z,46.30
2017-08-21T13:15:13.660Z,47.00
2017-08-21T13:17:41.735Z,46.20
2017-08-21T13:20:09.794Z,46.60
2017-08-21T13:22:37.870Z,48.10
2017-08-21T13:25:05.927Z,46.20
2017-08-21T13:27:34.008Z,46.20
2017-08-21T13:30:02.069Z,45.80
2017-08-21T13:32:30.148Z,45.60
2017-08-21T13:34:58.211Z,46.90
2017-08-21T13:37:26.287Z,44.50
2017-08-21T13:39:54.355Z,45.60
2017-08-21T13:42:22.399Z,47.90
2017-08-21T13:44:50.453Z,47.40
2017-08-21T13:47:18.522Z,44.80
2017-08-21T13:49:46.602Z,43.90
2017-08-21T13:52:14.827Z,45.00
2017-08-21T13:54:42.887Z,45.20
2017-08-21T13:57:10.971Z,45.90
2017-08-21T13:59:39.050Z,44.70
2017-08-21T14:02:07.120Z,43.70
2017-08-21T14:04:35.266Z,44.50
2017-08-21T14:07:03.317Z,44.50
2017-08-21T14:09:31.410Z,44.60
2017-08-21T14:11:59.479Z,44.60
2017-08-21T14:14:27.546Z,45.60
2017-08-21T14:16:55.643Z,46.40
2017-08-21T14:19:23.727Z,47.10
2017-08-21T14:21:51.781Z,46.40
2017-08-21T14:24:19.863Z,46.20
2017-08-21T14:26:47.908Z,43.90
2017-08-21T14:29:15.962Z,45.00
2017-08-21T14:31:44.027Z,44.70
2017-08-21T14:34:12.086Z,43.80
2017-08-21T14:36:40.163Z,43.30
2017-08-21T14:39:08.253Z,45.20
2017-08-21T14:41:36.304Z,43.80
2017-08-21T14:44:04.390Z,44.70
2017-08-21T14:46:32.464Z,45.80
2017-08-21T14:49:00.534Z,46.10
2017-08-21T14:51:28.604Z,48.30
2017-08-21T14:53:57.325Z,47.00
2017-08-21T14:56:25.374Z,45.60
2017-08-21T14:58:53.471Z,46.90
2017-08-21T15:01:21.546Z,46.90
2017-08-21T15:03:49.651Z,47.90
2017-08-21T15:06:17.732Z,47.10
2017-08-21T15:08:45.831Z,47.70
2017-08-21T15:11:13.884Z,47.60
2017-08-21T15:13:41.959Z,46.60
2017-08-21T15:16:10.011Z,46.00
2017-08-21T15:18:38.922Z,45.90
2017-08-21T15:21:07.002Z,45.80
2017-08-21T15:23:35.059Z,46.10
2017-08-21T15:26:03.119Z,44.70
2017-08-21T15:28:31.226Z,45.40
2017-08-21T15:30:59.275Z,46.00
2017-08-21T15:33:27.335Z,46.10
2017-08-21T15:35:55.500Z,46.10
2017-08-21T15:38:23.558Z,46.20
2017-08-21T15:40:51.615Z,46.20
2017-08-21T15:43:19.711Z,46.10
2017-08-21T15:45:47.760Z,46.90
2017-08-21T15:48:15.822Z,46.70
2017-08-21T15:50:43.895Z,47.00
2017-08-21T15:53:11.985Z,47.30
2017-08-21T15:55:40.052Z,46.40
2017-08-21T15:58:08.106Z,45.70
2017-08-21T16:00:36.198Z,46.30
2017-08-21T16:03:04.253Z,46.90
2017-08-21T16:05:32.326Z,47.00
2017-08-21T16:08:00.396Z,47.00
2017-08-21T16:10:28.447Z,46.30
2017-08-21T16:12:56.526Z,46.40
2017-08-21T16:15:24.593Z,46.30
2017-08-21T16:17:52.659Z,47.00
2017-08-21T16:20:20.695Z,48.00
2017-08-21T16:22:48.764Z,48.70
2017-08-21T16:25:16.860Z,48.40
2017-08-21T16:27:44.954Z,49.10
2017-08-21T16:30:13.040Z,48.90
2017-08-21T16:32:41.142Z,48.50
2017-08-21T16:35:09.202Z,48.30
2017-08-21T16:37:37.518Z,49.10
2017-08-21T16:40:05.591Z,49.50
2017-08-21T16:42:33.639Z,50.10
2017-08-21T16:45:01.708Z,49.50
2017-08-21T16:47:29.807Z,48.10
2017-08-21T16:49:58.562Z,49.90
2017-08-21T16:52:26.649Z,49.40
2017-08-21T16:54:54.719Z,49.10
2017-08-21T16:57:22.878Z,49.70
2017-08-21T16:59:50.979Z,50.60
2017-08-21T17:02:19.064Z,51.30
2017-08-21T17:04:47.122Z,51.90
2017-08-21T17:07:15.216Z,51.50
2017-08-21T17:09:43.274Z,51.70
2017-08-21T17:12:11.318Z,50.50
2017-08-21T17:14:39.406Z,50.20
2017-08-21T17:17:07.487Z,50.40
2017-08-21T17:19:35.669Z,50.60
2017-08-21T17:22:03.745Z,51.00
2017-08-21T17:24:31.810Z,50.70
2017-08-21T17:26:59.947Z,50.40
2017-08-21T17:29:28.015Z,52.50
2017-08-21T17:31:56.120Z,53.70
2017-08-21T17:34:24.168Z,54.20
2017-08-21T17:36:52.255Z,55.20
2017-08-21T17:39:20.329Z,55.50
2017-08-21T17:41:50.088Z,56.50
2017-08-21T17:44:18.668Z,56.90
2017-08-21T17:46:46.804Z,57.90
2017-08-21T17:49:14.870Z,57.40
2017-08-21T17:51:42.953Z,58.00
2017-08-21T17:54:11.010Z,58.10
2017-08-21T17:56:39.827Z,58.30
2017-08-21T17:59:07.945Z,58.90
2017-08-21T18:01:35.989Z,59.30
2017-08-21T18:04:04.041Z,59.10
2017-08-21T18:06:32.136Z,61.60
2017-08-21T18:09:00.191Z,61.90
2017-08-21T18:11:28.285Z,62.70
2017-08-21T18:13:56.349Z,62.20
2017-08-21T18:16:24.403Z,63.00
2017-08-21T18:18:52.476Z,63.40
2017-08-21T18:21:20.561Z,63.30
2017-08-21T18:23:48.637Z,64.00
2017-08-21T18:26:16.714Z,64.50
2017-08-21T18:28:44.795Z,64.60
2017-08-21T18:31:12.889Z,64.90
2017-08-21T18:33:41.073Z,65.10
2017-08-21T18:36:09.124Z,65.70
2017-08-21T18:38:37.162Z,66.40
2017-08-21T18:41:05.251Z,66.60
2017-08-21T18:43:33.312Z,67.10
2017-08-21T18:46:01.370Z,66.50
2017-08-21T18:48:29.460Z,67.10
2017-08-21T18:50:59.016Z,67.30
2017-08-21T18:53:27.190Z,67.30
2017-08-21T18:55:55.264Z,67.00
2017-08-21T18:58:23.373Z,68.00
2017-08-21T19:00:51.484Z,68.20
2017-08-21T19:03:20.112Z,68.90
2017-08-21T19:05:48.181Z,68.80
2017-08-21T19:08:16.258Z,69.00
2017-08-21T19:10:44.322Z,69.80
2017-08-21T19:13:12.416Z,70.10
2017-08-21T19:15:40.484Z,70.70
2017-08-21T19:18:08.562Z,70.90
2017-08-21T19:20:36.689Z,70.80
2017-08-21T19:23:04.750Z,71.10
2017-08-21T19:25:32.831Z,70.70
2017-08-21T19:28:00.927Z,71.60
2017-08-21T19:30:28.996Z,71.90
2017-08-21T19:32:57.076Z,71.90
2017-08-21T19:35:25.510Z,71.80
2017-08-21T19:37:53.549Z,70.40
2017-08-21T19:40:21.612Z,71.30
2017-08-21T19:42:49.667Z,70.70
2017-08-21T19:45:17.781Z,70.60
2017-08-21T19:47:45.872Z,70.90
2017-08-21T19:50:13.935Z,71.80
2017-08-21T19:52:42.014Z,72.40
2017-08-21T19:55:10.118Z,73.30
2017-08-21T19:57:38.159Z,73.90
2017-08-21T20:00:06.260Z,74.10
2017-08-21T20:02:34.325Z,74.50
2017-08-21T20:05:02.410Z,74.00
2017-08-21T20:07:30.476Z,74.50
2017-08-21T20:09:58.720Z,75.10
2017-08-21T20:12:26.766Z,75.50
2017-08-21T20:14:54.843Z,76.10
2017-08-21T20:17:22.944Z,76.10
2017-08-21T20:19:51.052Z,75.80
2017-08-21T20:22:19.187Z,76.70
2017-08-21T20:24:47.263Z,77.00
2017-08-21T20:27:15.342Z,77.30
2017-08-21T20:29:43.440Z,77.80
2017-08-21T20:32:11.484Z,77.90
2017-08-21T20:34:39.579Z,78.10
2017-08-21T20:37:07.631Z,78.10
2017-08-21T20:39:35.692Z,77.80
2017-08-21T20:42:03.771Z,78.80
2017-08-21T20:44:31.842Z,79.60
2017-08-21T20:46:59.936Z,79.80
2017-08-21T20:49:28.031Z,79.90
2017-08-21T20:51:56.107Z,80.10
2017-08-21T20:54:24.168Z,80.00
2017-08-21T20:56:52.242Z,79.50
2017-08-21T20:59:20.978Z,79.20
2017-08-21T21:01:49.040Z,79.40
2017-08-21T21:04:17.135Z,79.30
2017-08-21T21:06:45.203Z,79.00
2017-08-21T21:09:13.300Z,79.30
2017-08-21T21:11:41.394Z,79.60
2017-08-21T21:14:09.455Z,79.60
2017-08-21T21:16:37.534Z,79.40
2017-08-21T21:19:05.611Z,79.70
2017-08-21T21:21:34.609Z,79.60
2017-08-21T21:24:02.659Z,78.70
2017-08-21T21:26:30.739Z,79.80
2017-08-21T21:28:58.812Z,80.20
2017-08-21T21:31:26.900Z,80.50
2017-08-21T21:33:55.097Z,80.10
2017-08-21T21:36:23.139Z,81.00
2017-08-21T21:38:51.299Z,80.90
2017-08-21T21:41:19.363Z,81.10
2017-08-21T21:43:48.427Z,81.20
2017-08-21T21:46:16.521Z,81.40
2017-08-21T21:48:44.604Z,81.40
2017-08-21T21:51:12.671Z,81.10
2017-08-21T21:53:41.482Z,81.30
2017-08-21T21:56:09.561Z,81.60
2017-08-21T21:58:37.642Z,81.90
2017-08-21T22:01:06.487Z,82.20
2017-08-21T22:03:34.542Z,82.00
2017-08-21T22:06:02.630Z,82.10
2017-08-21T22:08:30.709Z,82.30
2017-08-21T22:10:58.851Z,82.50
2017-08-21T22:13:26.963Z,82.40
2017-08-21T22:15:55.068Z,82.40
2017-08-21T22:18:23.134Z,82.10
2017-08-21T22:20:51.207Z,82.20
2017-08-21T22:23:19.286Z,82.10
2017-08-21T22:25:47.371Z,82.00
2017-08-21T22:28:15.431Z,81.90
2017-08-21T22:30:43.506Z,82.10
2017-08-21T22:33:11.567Z,82.40
2017-08-21T22:35:39.660Z,82.60
2017-08-21T22:38:08.474Z,83.10
2017-08-21T22:40:36.548Z,83.00
2017-08-21T22:43:04.614Z,83.00
2017-08-21T22:45:32.682Z,83.10
2017-08-21T22:48:00.779Z,83.40
2017-08-21T22:50:28.844Z,83.30
2017-08-21T22:52:56.932Z,83.70
2017-08-21T22:55:25.010Z,83.50
2017-08-21T22:57:53.087Z,83.80
2017-08-21T23:00:21.400Z,83.70
2017-08-21T23:02:49.435Z,83.50
2017-08-21T23:05:17.565Z,83.10
2017-08-21T23:07:45.615Z,83.30
2017-08-21T23:10:13.693Z,83.30
2017-08-21T23:12:42.514Z,83.40
2017-08-21T23:15:10.579Z,83.20
2017-08-21T23:17:38.655Z,83.10
2017-08-21T23:20:06.743Z,82.90
2017-08-21T23:22:34.818Z,82.60
2017-08-21T23:25:02.939Z,83.40
2017-08-21T23:27:30.996Z,82.90
2017-08-21T23:29:59.082Z,82.90
2017-08-21T23:32:27.167Z,83.40
2017-08-21T23:34:55.259Z,83.20
2017-08-21T23:37:23.324Z,83.40
2017-08-21T23:39:51.392Z,83.10
2017-08-21T23:42:19.454Z,83.00
2017-08-21T23:44:47.536Z,83.10
2017-08-21T23:47:15.591Z,83.00
2017-08-21T23:49:43.684Z,83.00
2017-08-21T23:52:11.740Z,83.00
2017-08-21T23:54:39.798Z,83.40
2017-08-21T23:57:07.875Z,83.90
2017-08-21T23:59:35.963Z,83.70
